createdAt,value
2022-12-27T00:01:26.875Z,8.50
2022-12-27T00:03:53.996Z,6.88
2022-12-27T00:06:22.570Z,7.13
2022-12-27T00:08:49.113Z,8.20
2022-12-27T00:11:17.723Z,5.90
2022-12-27T00:13:44.260Z,5.95
2022-12-27T00:16:13.119Z,12.68
2022-12-27T00:18:40.253Z,9.52
2022-12-27T00:21:07.732Z,12.57
2022-12-27T00:23:37.029Z,11.32
2022-12-27T00:26:11.001Z,10.20
2022-12-27T00:28:37.532Z,14.73
2022-12-27T00:31:05.426Z,6.32
2022-12-27T00:33:34.177Z,12.80
2022-12-27T00:36:02.225Z,12.77
2022-12-27T00:38:28.881Z,11.10
2022-12-27T00:40:55.298Z,15.43
2022-12-27T00:43:21.716Z,13.32
2022-12-27T00:45:48.332Z,7.25
2022-12-27T00:48:14.873Z,7.45
2022-12-27T00:50:42.581Z,8.73
2022-12-27T00:53:09.906Z,8.38
2022-12-27T00:55:36.627Z,13.93
2022-12-27T00:58:03.366Z,10.20
2022-12-27T01:00:30.355Z,11.82
2022-12-27T01:02:56.940Z,12.65
2022-12-27T01:05:23.998Z,8.23
2022-12-27T01:07:50.379Z,12.50
2022-12-27T01:10:16.787Z,7.13
2022-12-27T01:12:43.172Z,15.27
2022-12-27T01:15:10.310Z,15.77
2022-12-27T01:17:36.671Z,8.60
2022-12-27T01:20:03.490Z,12.02
2022-12-27T01:22:29.898Z,12.80
2022-12-27T01:24:56.410Z,10.00
2022-12-27T01:27:22.934Z,8.48
2022-12-27T01:29:49.329Z,11.18
2022-12-27T01:32:15.773Z,15.55
2022-12-27T01:34:42.254Z,8.23
2022-12-27T01:37:08.616Z,8.90
2022-12-27T01:39:35.061Z,8.45
2022-12-27T01:42:19.994Z,7.95
2022-12-27T01:44:53.662Z,12.13
2022-12-27T01:47:41.381Z,8.80
2022-12-27T01:50:22.990Z,6.97
2022-12-27T01:53:00.224Z,12.40
2022-12-27T01:55:31.442Z,10.20
2022-12-27T01:58:02.922Z,9.88
2022-12-27T02:00:29.353Z,17.75
2022-12-27T02:02:56.077Z,7.85
2022-12-27T02:05:24.094Z,12.80
2022-12-27T02:07:59.366Z,7.05
2022-12-27T02:10:25.799Z,10.15
2022-12-27T02:12:52.556Z,13.88
2022-12-27T02:15:18.984Z,12.10
2022-12-27T02:17:45.402Z,10.38
2022-12-27T02:20:21.411Z,12.52
2022-12-27T02:23:42.119Z,10.80
2022-12-27T02:26:20.432Z,10.18
2022-12-27T02:29:08.208Z,7.57
2022-12-27T02:32:13.000Z,10.88
2022-12-27T02:35:09.939Z,10.52
2022-12-27T02:37:41.784Z,9.48
2022-12-27T02:40:28.656Z,13.65
2022-12-27T02:43:14.116Z,14.05
2022-12-27T02:46:05.338Z,13.95
2022-12-27T02:48:50.377Z,16.00
2022-12-27T02:51:40.538Z,8.85
2022-12-27T02:54:43.585Z,7.97
2022-12-27T02:57:28.049Z,9.43
2022-12-27T03:00:26.988Z,6.88
2022-12-27T03:03:20.813Z,11.25
2022-12-27T03:06:21.190Z,12.63
2022-12-27T03:09:06.252Z,14.30
2022-12-27T03:12:05.383Z,15.00
2022-12-27T03:14:54.944Z,15.20
2022-12-27T03:17:37.581Z,8.95
2022-12-27T03:20:25.785Z,12.05
2022-12-27T03:23:13.426Z,11.50
2022-12-27T03:25:40.418Z,8.10
2022-12-27T03:28:28.653Z,12.25
2022-12-27T03:31:19.357Z,10.10
2022-12-27T03:33:47.770Z,10.18
2022-12-27T03:36:39.410Z,11.00
2022-12-27T03:39:12.717Z,11.00
2022-12-27T03:42:01.468Z,11.95
2022-12-27T03:44:27.965Z,8.07
2022-12-27T03:47:17.500Z,11.45
2022-12-27T03:50:07.915Z,7.38
2022-12-27T03:52:45.127Z,11.90
2022-12-27T03:55:11.853Z,13.75
2022-12-27T03:57:38.905Z,12.20
2022-12-27T04:00:06.216Z,11.80
2022-12-27T04:02:32.869Z,15.48
2022-12-27T04:04:59.414Z,13.52
2022-12-27T04:07:25.792Z,13.25
2022-12-27T04:10:10.835Z,10.23
2022-12-27T04:12:55.475Z,11.50
2022-12-27T04:15:40.537Z,13.27
2022-12-27T04:18:25.571Z,16.67
2022-12-27T04:21:10.496Z,11.50
2022-12-27T04:23:55.651Z,14.52
2022-12-27T04:26:40.645Z,14.48
2022-12-27T04:29:26.711Z,10.52
2022-12-27T04:32:11.553Z,18.33
2022-12-27T04:34:43.896Z,11.45
2022-12-27T04:37:17.148Z,7.05
2022-12-27T04:40:04.352Z,8.55
2022-12-27T04:42:49.361Z,10.38
2022-12-27T04:45:34.007Z,14.82
2022-12-27T04:48:19.274Z,9.20
2022-12-27T04:51:03.972Z,15.48
2022-12-27T04:53:49.005Z,11.73
2022-12-27T04:56:15.371Z,16.40
2022-12-27T04:59:01.728Z,16.15
2022-12-27T05:01:47.426Z,13.18
2022-12-27T05:04:13.865Z,14.75
2022-12-27T05:06:40.310Z,10.57
2022-12-27T05:09:25.357Z,12.00
2022-12-27T05:12:10.105Z,11.60
2022-12-27T05:14:36.518Z,11.60
2022-12-27T05:17:02.951Z,9.77
2022-12-27T05:19:29.359Z,14.63
2022-12-27T05:22:14.220Z,6.03
2022-12-27T05:24:58.920Z,7.05
2022-12-27T05:27:25.361Z,15.45
2022-12-27T05:29:51.817Z,9.57
2022-12-27T05:32:18.194Z,10.38
2022-12-27T05:34:44.838Z,10.75
2022-12-27T05:37:11.204Z,12.90
2022-12-27T05:39:37.675Z,13.52
2022-12-27T05:42:04.469Z,17.33
2022-12-27T05:44:30.872Z,11.00
2022-12-27T05:46:57.292Z,11.27
2022-12-27T05:49:23.682Z,12.15
2022-12-27T05:51:50.077Z,12.25
2022-12-27T05:54:16.545Z,16.98
2022-12-27T05:56:43.082Z,10.57
2022-12-27T05:59:09.488Z,12.82
2022-12-27T06:01:36.066Z,15.13
2022-12-27T06:04:02.690Z,16.23
2022-12-27T06:06:29.176Z,13.52
2022-12-27T06:08:55.596Z,12.85
2022-12-27T06:11:21.989Z,10.90
2022-12-27T06:13:50.930Z,11.02
2022-12-27T06:16:18.072Z,14.32
2022-12-27T06:18:44.517Z,10.93
2022-12-27T06:21:13.610Z,10.95
2022-12-27T06:23:41.157Z,12.13
2022-12-27T06:26:09.401Z,21.27
2022-12-27T06:28:35.988Z,15.60
2022-12-27T06:31:03.076Z,13.73
2022-12-27T06:33:29.785Z,15.27
2022-12-27T06:35:56.526Z,14.90
2022-12-27T06:38:23.488Z,18.98
2022-12-27T06:40:49.861Z,18.98
2022-12-27T06:43:16.635Z,19.98
2022-12-27T06:45:43.130Z,21.48
2022-12-27T06:48:09.561Z,21.30
2022-12-27T06:50:36.779Z,16.67
2022-12-27T06:53:03.170Z,19.33
2022-12-27T06:55:29.567Z,18.08
2022-12-27T06:57:56.104Z,20.10
2022-12-27T07:00:22.586Z,16.25
2022-12-27T07:02:49.069Z,11.10
2022-12-27T07:05:15.865Z,16.92
2022-12-27T07:07:42.261Z,19.42
2022-12-27T07:10:09.104Z,17.58
2022-12-27T07:12:36.898Z,16.67
2022-12-27T07:15:05.312Z,20.40
2022-12-27T07:17:31.688Z,15.90
2022-12-27T07:19:58.062Z,22.42
2022-12-27T07:22:24.442Z,19.08
2022-12-27T07:24:50.843Z,23.25
2022-12-27T07:27:17.247Z,19.73
2022-12-27T07:29:45.676Z,16.88
2022-12-27T07:32:12.302Z,15.88
2022-12-27T07:34:38.704Z,16.38
2022-12-27T07:37:05.263Z,46.47
2022-12-27T07:39:31.654Z,19.75
2022-12-27T07:42:01.878Z,20.75
2022-12-27T07:44:31.114Z,17.45
2022-12-27T07:46:57.482Z,18.92
2022-12-27T07:49:23.846Z,22.10
2022-12-27T07:51:50.205Z,21.80
2022-12-27T07:54:16.586Z,40.58
2022-12-27T07:56:42.988Z,19.35
2022-12-27T07:59:12.075Z,23.33
2022-12-27T08:01:57.243Z,21.40
2022-12-27T08:04:23.766Z,22.45
2022-12-27T08:06:50.279Z,14.00
2022-12-27T08:09:25.692Z,18.13
2022-12-27T08:11:52.099Z,19.00
2022-12-27T08:14:18.490Z,23.95
2022-12-27T08:16:44.943Z,19.58
2022-12-27T08:19:11.386Z,21.70
2022-12-27T08:21:38.987Z,13.52
2022-12-27T08:24:05.573Z,13.23
2022-12-27T08:26:31.963Z,16.42
2022-12-27T08:28:58.348Z,19.13
2022-12-27T08:31:24.783Z,12.68
2022-12-27T08:33:56.577Z,19.35
2022-12-27T08:39:12.010Z,16.65
2022-12-27T08:41:38.872Z,22.20
2022-12-27T08:44:05.437Z,17.63
2022-12-27T08:46:31.944Z,22.73
2022-12-27T08:48:58.339Z,19.20
2022-12-27T08:51:34.398Z,14.82
2022-12-27T08:54:05.262Z,19.27
2022-12-27T08:56:31.711Z,12.27
2022-12-27T08:58:58.097Z,14.75
2022-12-27T09:01:25.730Z,19.83
2022-12-27T09:03:52.280Z,11.43
2022-12-27T09:06:21.025Z,15.80
2022-12-27T09:08:48.873Z,21.38
2022-12-27T09:11:18.939Z,19.65
2022-12-27T09:13:45.524Z,15.68
2022-12-27T09:16:14.923Z,11.75
2022-12-27T09:18:42.157Z,15.35
2022-12-27T09:21:10.595Z,14.88
2022-12-27T09:23:37.903Z,11.30
2022-12-27T09:26:13.425Z,14.02
2022-12-27T09:28:40.271Z,15.15
2022-12-27T09:31:08.906Z,12.90
2022-12-27T09:33:35.481Z,12.80
2022-12-27T09:36:19.556Z,12.68
2022-12-27T09:38:47.034Z,10.30
2022-12-27T09:44:46.771Z,21.55
2022-12-27T09:47:18.980Z,14.65
2022-12-27T09:52:17.042Z,8.93
2022-12-27T09:54:44.054Z,14.02
2022-12-27T09:57:24.318Z,10.10
2022-12-27T09:59:56.869Z,7.28
2022-12-27T10:02:25.513Z,10.80
2022-12-27T10:05:19.004Z,15.18
2022-12-27T10:07:53.635Z,12.27
2022-12-27T10:10:31.970Z,12.60
2022-12-27T10:13:02.109Z,11.27
2022-12-27T10:15:43.806Z,11.73
2022-12-27T10:18:47.645Z,9.30
2022-12-27T10:21:23.716Z,9.55
2022-12-27T10:24:00.636Z,16.13
2022-12-27T10:26:27.227Z,15.02
2022-12-27T10:29:11.686Z,11.43
2022-12-27T10:31:42.313Z,21.30
2022-12-27T10:34:10.948Z,14.13
2022-12-27T10:36:37.540Z,16.70
2022-12-27T10:39:09.683Z,12.73
2022-12-27T10:44:02.332Z,12.63
2022-12-27T10:46:33.513Z,11.95
2022-12-27T10:49:21.824Z,14.80
2022-12-27T10:51:50.613Z,10.85
2022-12-27T10:54:22.080Z,15.30
2022-12-27T10:56:48.527Z,9.80
2022-12-27T10:59:26.961Z,11.98
2022-12-27T11:02:02.900Z,10.65
2022-12-27T11:04:30.956Z,9.07
2022-12-27T11:06:59.509Z,9.18
2022-12-27T11:09:27.712Z,11.00
2022-12-27T11:12:19.259Z,13.35
2022-12-27T11:14:57.091Z,12.70
2022-12-27T11:17:45.188Z,11.35
2022-12-27T11:20:12.153Z,6.82
2022-12-27T11:22:47.178Z,9.20
2022-12-27T11:25:14.485Z,11.98
2022-12-27T11:27:45.406Z,10.77
2022-12-27T11:30:31.376Z,9.55
2022-12-27T11:33:02.666Z,7.43
2022-12-27T11:35:29.268Z,6.87
2022-12-27T11:37:55.795Z,8.82
2022-12-27T11:40:27.190Z,12.20
2022-12-27T11:43:02.834Z,9.88
2022-12-27T11:45:35.847Z,10.48
2022-12-27T11:48:14.985Z,11.63
2022-12-27T11:50:53.934Z,9.95
2022-12-27T11:53:43.902Z,9.50
2022-12-27T11:56:26.603Z,9.00
2022-12-27T11:59:11.301Z,12.25
2022-12-27T12:01:49.804Z,12.02
2022-12-27T12:04:43.142Z,11.63
2022-12-27T12:07:37.050Z,10.82
2022-12-27T12:10:28.104Z,7.57
2022-12-27T12:13:06.497Z,11.52
2022-12-27T12:15:52.753Z,10.82
2022-12-27T12:18:31.025Z,16.95
2022-12-27T12:21:26.432Z,14.07
2022-12-27T12:24:26.348Z,10.48
2022-12-27T12:27:26.150Z,11.98
2022-12-27T12:30:26.859Z,6.68
2022-12-27T12:33:06.199Z,7.65
2022-12-27T12:35:48.894Z,6.13
2022-12-27T12:38:23.561Z,11.88
2022-12-27T12:41:38.018Z,7.40
2022-12-27T12:44:13.737Z,7.97
2022-12-27T12:47:10.040Z,17.23
2022-12-27T12:49:45.282Z,11.10
2022-12-27T12:52:11.562Z,9.50
2022-12-27T12:54:47.182Z,9.05
2022-12-27T12:57:27.452Z,7.18
2022-12-27T13:00:21.336Z,14.15
2022-12-27T13:03:10.688Z,11.80
2022-12-27T13:05:47.911Z,6.10
2022-12-27T13:08:31.383Z,8.60
2022-12-27T13:11:06.976Z,8.13
2022-12-27T13:14:00.713Z,9.10
2022-12-27T13:16:52.053Z,10.90
2022-12-27T13:19:36.709Z,10.90
2022-12-27T13:22:16.680Z,12.52
2022-12-27T13:25:06.242Z,12.23
2022-12-27T13:27:45.710Z,9.95
2022-12-27T13:30:25.065Z,14.40
2022-12-27T13:33:18.811Z,11.63
2022-12-27T13:36:07.019Z,9.70
2022-12-27T13:38:55.261Z,11.32
2022-12-27T13:41:46.714Z,9.23
2022-12-27T13:44:22.365Z,9.40
2022-12-27T13:47:14.965Z,8.13
2022-12-27T13:52:47.349Z,12.98
2022-12-27T13:55:22.797Z,8.50
2022-12-27T13:58:06.105Z,5.85
2022-12-27T14:00:43.413Z,15.38
2022-12-27T14:03:40.218Z,8.93
2022-12-27T14:06:43.718Z,7.75
2022-12-27T14:09:48.890Z,8.38
2022-12-27T14:12:42.893Z,8.43
2022-12-27T14:15:15.741Z,9.65
2022-12-27T14:17:48.099Z,7.75
2022-12-27T14:20:52.121Z,8.43
2022-12-27T14:23:40.471Z,10.45
2022-12-27T14:26:28.846Z,12.55
2022-12-27T14:29:20.002Z,10.00
2022-12-27T14:32:24.907Z,13.02
2022-12-27T14:35:16.025Z,6.50
2022-12-27T14:38:36.851Z,8.85
2022-12-27T14:41:18.391Z,8.13
2022-12-27T14:44:16.511Z,6.30
2022-12-27T14:46:59.566Z,9.30
2022-12-27T14:49:41.347Z,9.52
2022-12-27T14:52:19.580Z,6.25
2022-12-27T14:55:04.206Z,6.28
2022-12-27T14:57:55.377Z,7.40
2022-12-27T15:00:25.995Z,9.60
2022-12-27T15:03:14.402Z,7.53
2022-12-27T15:05:49.096Z,7.75
2022-12-27T15:08:36.997Z,8.30
2022-12-27T15:11:40.987Z,9.70
2022-12-27T15:14:36.489Z,8.75
2022-12-27T15:17:31.555Z,6.43
2022-12-27T15:20:35.391Z,14.05
2022-12-27T15:23:17.844Z,8.90
2022-12-27T15:28:51.761Z,11.68
2022-12-27T15:31:40.130Z,6.30
2022-12-27T15:34:28.702Z,9.35
2022-12-27T15:36:55.207Z,13.40
2022-12-27T15:39:45.353Z,10.27
2022-12-27T15:42:30.397Z,9.57
2022-12-27T15:45:19.789Z,8.45
2022-12-27T15:47:57.302Z,6.18
2022-12-27T15:51:14.887Z,12.50
2022-12-27T15:53:55.316Z,6.07
2022-12-27T15:56:44.057Z,8.48
2022-12-27T15:59:36.624Z,8.07
2022-12-27T16:02:22.345Z,8.20
2022-12-27T16:04:52.941Z,7.53
2022-12-27T16:07:36.852Z,8.63
2022-12-27T16:10:31.572Z,13.50
2022-12-27T16:13:04.079Z,12.18
2022-12-27T16:15:53.566Z,7.53
2022-12-27T16:18:22.898Z,9.90
2022-12-27T16:20:59.584Z,7.28
2022-12-27T16:24:02.890Z,5.80
2022-12-27T16:26:31.101Z,12.48
2022-12-27T16:29:13.981Z,8.98
2022-12-27T16:31:48.980Z,10.20
2022-12-27T16:34:31.359Z,13.85
2022-12-27T16:36:59.364Z,9.30
2022-12-27T16:39:57.137Z,7.18
2022-12-27T16:42:28.438Z,13.27
2022-12-27T16:45:05.465Z,15.77
2022-12-27T16:47:34.945Z,9.90
2022-12-27T16:50:01.218Z,10.82
2022-12-27T16:53:00.573Z,10.82
2022-12-27T16:55:30.138Z,5.57
2022-12-27T16:58:28.770Z,8.10
2022-12-27T17:00:56.905Z,6.13
2022-12-27T17:03:29.893Z,8.98
2022-12-27T17:08:44.479Z,7.20
2022-12-27T17:11:28.247Z,8.23
2022-12-27T17:13:58.321Z,5.45
2022-12-27T17:16:27.886Z,11.32
2022-12-27T17:19:01.286Z,8.43
2022-12-27T17:21:38.428Z,9.30
2022-12-27T17:24:07.875Z,8.27
2022-12-27T17:27:01.232Z,5.90
2022-12-27T17:29:46.347Z,9.13
2022-12-27T17:32:30.507Z,8.55
2022-12-27T17:35:28.676Z,5.47
2022-12-27T17:38:16.642Z,7.18
2022-12-27T17:40:46.091Z,13.32
2022-12-27T17:43:43.444Z,8.00
2022-12-27T17:46:31.371Z,7.63
2022-12-27T17:48:58.313Z,6.05
2022-12-27T17:51:27.522Z,7.28
2022-12-27T17:54:14.007Z,4.55
2022-12-27T17:57:03.468Z,6.70
2022-12-27T17:59:31.354Z,5.32
2022-12-27T18:02:09.057Z,4.25
2022-12-27T18:04:37.074Z,6.32
2022-12-27T18:07:05.872Z,8.52
2022-12-27T18:09:37.574Z,7.95
2022-12-27T18:12:19.106Z,9.57
2022-12-27T18:15:09.556Z,7.68
2022-12-27T18:17:38.725Z,6.75
2022-12-27T18:20:26.518Z,4.20
2022-12-27T18:23:17.065Z,6.65
2022-12-27T18:25:43.347Z,5.70
2022-12-27T18:28:23.830Z,7.10
2022-12-27T18:31:17.261Z,6.13
2022-12-27T18:33:54.793Z,4.68
2022-12-27T18:36:30.019Z,6.80
2022-12-27T18:39:01.877Z,7.03
2022-12-27T18:41:35.306Z,7.93
2022-12-27T18:44:01.910Z,8.93
2022-12-27T18:46:34.108Z,7.95
2022-12-27T18:51:32.162Z,7.15
2022-12-27T18:53:59.001Z,3.88
2022-12-27T18:56:32.298Z,5.20
2022-12-27T18:59:00.265Z,4.93
2022-12-27T19:01:36.951Z,6.47
2022-12-27T19:04:18.648Z,7.00
2022-12-27T19:06:55.462Z,6.38
2022-12-27T19:09:24.964Z,6.60
2022-12-27T19:11:59.705Z,5.57
2022-12-27T19:14:30.004Z,9.38
2022-12-27T19:16:57.896Z,4.60
2022-12-27T19:19:31.303Z,9.07
2022-12-27T19:21:58.117Z,5.25
2022-12-27T19:24:27.148Z,5.75
2022-12-27T19:26:54.679Z,7.38
2022-12-27T19:29:29.769Z,6.15
2022-12-27T19:32:02.347Z,10.80
2022-12-27T19:34:31.598Z,11.77
2022-12-27T19:36:58.065Z,8.02
2022-12-27T19:39:28.836Z,6.13
2022-12-27T19:42:00.981Z,7.93
2022-12-27T19:44:28.398Z,7.82
2022-12-27T19:46:54.798Z,3.03
2022-12-27T19:49:41.545Z,7.78
2022-12-27T19:52:15.982Z,9.88
2022-12-27T19:54:42.529Z,8.60
2022-12-27T19:57:12.104Z,7.35
2022-12-27T19:59:38.760Z,7.97
2022-12-27T20:02:05.355Z,11.98
2022-12-27T20:04:31.894Z,7.85
2022-12-27T20:06:59.789Z,8.18
2022-12-27T20:09:26.210Z,6.40
2022-12-27T20:11:53.058Z,9.55
2022-12-27T20:14:19.650Z,5.22
2022-12-27T20:16:46.974Z,9.10
2022-12-27T20:19:16.147Z,5.50
2022-12-27T20:21:42.546Z,5.95
2022-12-27T20:24:10.953Z,10.43
2022-12-27T20:26:37.570Z,4.55
2022-12-27T20:29:04.041Z,6.13
2022-12-27T20:31:30.641Z,8.88
2022-12-27T20:33:57.091Z,12.10
2022-12-27T20:36:24.059Z,11.75
2022-12-27T20:38:50.588Z,5.70
2022-12-27T20:41:19.301Z,10.95
2022-12-27T20:43:45.920Z,7.50
2022-12-27T20:46:14.688Z,7.25
2022-12-27T20:48:42.179Z,9.77
2022-12-27T20:51:10.773Z,11.30
2022-12-27T20:53:37.256Z,13.00
2022-12-27T20:56:04.974Z,8.32
2022-12-27T20:58:32.162Z,7.13
2022-12-27T21:01:04.930Z,7.20
2022-12-27T21:03:31.383Z,9.15
2022-12-27T21:05:57.850Z,8.30
2022-12-27T21:08:24.209Z,7.75
2022-12-27T21:10:50.600Z,7.35
2022-12-27T21:13:17.042Z,7.32
2022-12-27T21:15:46.014Z,9.95
2022-12-27T21:18:12.370Z,6.43
2022-12-27T21:20:38.898Z,7.68
2022-12-27T21:23:05.277Z,8.02
2022-12-27T21:25:32.499Z,5.18
2022-12-27T21:27:58.888Z,5.82
2022-12-27T21:30:25.289Z,7.13
2022-12-27T21:32:51.640Z,7.07
2022-12-27T21:35:18.026Z,6.78
2022-12-27T21:37:44.397Z,8.45
2022-12-27T21:40:11.420Z,6.50
2022-12-27T21:42:37.777Z,21.88
2022-12-27T21:45:04.550Z,5.75
2022-12-27T21:47:31.555Z,6.90
2022-12-27T21:49:57.927Z,10.35
2022-12-27T21:52:24.335Z,7.00
2022-12-27T21:54:50.754Z,7.18
2022-12-27T21:57:17.139Z,5.40
2022-12-27T21:59:43.500Z,11.90
2022-12-27T22:02:10.070Z,7.40
2022-12-27T22:04:36.513Z,5.47
2022-12-27T22:07:02.948Z,12.20
2022-12-27T22:09:29.330Z,5.28
2022-12-27T22:11:55.705Z,7.30
2022-12-27T22:14:25.657Z,6.35
2022-12-27T22:16:52.802Z,6.45
2022-12-27T22:19:19.222Z,4.25
2022-12-27T22:21:45.620Z,5.75
2022-12-27T22:24:17.059Z,5.10
2022-12-27T22:26:43.445Z,5.80
2022-12-27T22:29:11.885Z,9.48
2022-12-27T22:31:39.251Z,6.93
2022-12-27T22:34:06.385Z,7.35
2022-12-27T22:36:33.549Z,5.53
2022-12-27T22:39:01.328Z,6.10
2022-12-27T22:41:35.816Z,4.20
2022-12-27T22:44:04.829Z,4.95
2022-12-27T22:46:58.565Z,5.20
2022-12-27T22:49:18.906Z,4.65
2022-12-27T22:51:45.616Z,5.05
2022-12-27T22:54:12.043Z,6.07
2022-12-27T22:56:40.695Z,6.63
2022-12-27T22:59:14.794Z,5.28
2022-12-27T23:01:42.172Z,4.70
2022-12-27T23:04:11.215Z,7.03
2022-12-27T23:06:37.686Z,3.63
2022-12-27T23:09:05.210Z,6.78
2022-12-27T23:11:35.564Z,3.28
2022-12-27T23:14:09.604Z,6.07
2022-12-27T23:16:47.044Z,5.82
2022-12-27T23:19:15.714Z,7.00
2022-12-27T23:21:42.564Z,11.88
2022-12-27T23:24:09.496Z,7.57
2022-12-27T23:26:35.930Z,7.15
2022-12-27T23:29:03.027Z,4.38
2022-12-27T23:31:29.981Z,8.27
2022-12-27T23:33:56.391Z,5.88
2022-12-27T23:36:23.106Z,7.88
2022-12-27T23:38:50.051Z,2.90
2022-12-27T23:41:19.535Z,4.35
2022-12-27T23:43:55.242Z,5.93
2022-12-27T23:46:30.229Z,6.45
2022-12-27T23:48:58.044Z,4.45
2022-12-27T23:51:25.042Z,3.92
2022-12-27T23:53:51.596Z,6.57
2022-12-27T23:56:23.002Z,6.07
2022-12-27T23:58:51.560Z,4.85
